createdAt,value
2018-11-29T00:03:53.147Z,12.20
2018-11-29T00:09:13.421Z,12.53
2018-11-29T00:14:18.869Z,12.17
2018-11-29T00:19:24.287Z,10.33
2018-11-29T00:24:29.756Z,12.50
2018-11-29T00:29:35.346Z,10.73
2018-11-29T00:34:41.134Z,10.03
2018-11-29T00:39:46.757Z,9.90
2018-11-29T00:44:52.233Z,8.90
2018-11-29T00:49:57.568Z,9.53
2018-11-29T00:55:03.702Z,10.23
2018-11-29T01:00:17.813Z,10.57
2018-11-29T01:05:23.632Z,10.23
2018-11-29T01:10:29.080Z,8.90
2018-11-29T01:15:34.654Z,8.13
2018-11-29T01:20:40.089Z,8.60
2018-11-29T01:25:45.601Z,9.10
2018-11-29T01:30:51.283Z,8.87
2018-11-29T01:35:56.754Z,8.33
2018-11-29T01:41:02.245Z,8.90
2018-11-29T01:46:07.757Z,9.27
2018-11-29T01:51:13.291Z,8.63
2018-11-29T01:56:18.815Z,9.30
2018-11-29T02:01:24.373Z,7.77
2018-11-29T02:06:29.838Z,8.50
2018-11-29T02:11:36.683Z,9.57
2018-11-29T02:16:42.183Z,8.67
2018-11-29T02:21:47.984Z,8.43
2018-11-29T02:26:53.509Z,8.50
2018-11-29T02:31:59.960Z,9.10
2018-11-29T02:37:06.152Z,9.60
2018-11-29T02:42:11.909Z,8.37
2018-11-29T02:47:17.446Z,8.27
2018-11-29T02:52:23.381Z,7.73
2018-11-29T02:57:28.779Z,7.80
2018-11-29T03:02:34.147Z,8.93
2018-11-29T03:07:39.625Z,8.80
2018-11-29T03:12:45.534Z,9.27
2018-11-29T03:17:51.348Z,9.40
2018-11-29T03:22:56.772Z,9.40
2018-11-29T03:28:02.377Z,10.30
2018-11-29T03:33:08.228Z,9.23
2018-11-29T03:38:13.946Z,9.30
2018-11-29T03:43:19.344Z,8.97
2018-11-29T03:48:25.481Z,9.07
2018-11-29T03:53:30.984Z,10.03
2018-11-29T03:58:36.399Z,10.30
2018-11-29T04:03:42.046Z,8.87
2018-11-29T04:08:49.547Z,10.10
2018-11-29T04:13:55.010Z,8.77
2018-11-29T04:19:00.701Z,7.43
2018-11-29T04:24:06.212Z,8.90
2018-11-29T04:29:11.770Z,8.50
2018-11-29T04:34:17.064Z,8.70
2018-11-29T04:39:22.902Z,9.13
2018-11-29T04:44:28.471Z,9.67
2018-11-29T04:49:34.069Z,8.80
2018-11-29T04:54:39.862Z,9.10
2018-11-29T04:59:45.539Z,8.23
2018-11-29T05:04:51.060Z,9.40
2018-11-29T05:09:56.530Z,10.50
2018-11-29T05:15:01.983Z,16.27
2018-11-29T05:20:07.437Z,12.60
2018-11-29T05:25:13.293Z,13.83
2018-11-29T05:30:19.027Z,11.60
2018-11-29T05:35:24.369Z,9.73
2018-11-29T05:40:29.882Z,9.63
2018-11-29T05:45:35.616Z,9.77
2018-11-29T05:50:41.106Z,8.77
2018-11-29T05:55:47.259Z,8.63
2018-11-29T06:00:53.915Z,7.43
2018-11-29T06:05:59.519Z,6.93
2018-11-29T06:11:05.541Z,7.80
2018-11-29T06:16:11.454Z,8.47
2018-11-29T06:21:16.886Z,8.40
2018-11-29T06:26:22.759Z,9.50
2018-11-29T06:31:28.236Z,8.00
2018-11-29T06:36:33.963Z,8.00
2018-11-29T06:41:39.694Z,7.40
2018-11-29T06:46:45.133Z,7.20
2018-11-29T06:51:50.914Z,8.20
2018-11-29T06:56:56.671Z,8.60
2018-11-29T07:02:02.597Z,8.60
2018-11-29T07:07:08.062Z,8.37
2018-11-29T07:12:13.618Z,8.17
2018-11-29T07:17:19.409Z,7.70
2018-11-29T07:22:25.813Z,7.80
2018-11-29T07:27:31.390Z,7.90
2018-11-29T07:32:36.718Z,6.63
2018-11-29T07:37:42.670Z,8.17
2018-11-29T07:42:50.044Z,8.20
2018-11-29T07:47:55.865Z,8.60
2018-11-29T07:53:01.394Z,14.43
2018-11-29T07:58:07.390Z,16.50
2018-11-29T08:03:13.258Z,22.07
2018-11-29T08:08:19.148Z,34.27
2018-11-29T08:13:25.627Z,20.80
2018-11-29T08:18:31.278Z,17.27
2018-11-29T08:23:36.915Z,23.73
2018-11-29T08:28:42.336Z,19.03
2018-11-29T08:33:47.700Z,13.83
2018-11-29T08:38:53.627Z,17.90
2018-11-29T08:43:59.283Z,14.67
2018-11-29T08:49:05.319Z,9.00
2018-11-29T08:54:10.894Z,10.40
2018-11-29T08:59:16.736Z,8.93
2018-11-29T09:04:22.350Z,9.53
2018-11-29T09:09:28.053Z,8.63
2018-11-29T09:14:34.921Z,10.43
2018-11-29T09:19:40.728Z,11.17
2018-11-29T09:24:46.816Z,6.33
2018-11-29T09:29:52.591Z,7.60
2018-11-29T09:34:58.179Z,13.23
2018-11-29T09:40:04.543Z,7.90
2018-11-29T09:45:14.431Z,5.07
2018-11-29T09:50:20.228Z,5.40
2018-11-29T09:55:26.254Z,6.47
2018-11-29T10:00:32.492Z,6.97
2018-11-29T10:05:38.291Z,11.47
2018-11-29T10:10:44.229Z,14.80
2018-11-29T10:15:49.983Z,9.70
2018-11-29T10:20:55.962Z,7.00
2018-11-29T10:26:01.764Z,6.20
2018-11-29T10:31:08.138Z,6.00
2018-11-29T10:36:13.133Z,5.40
2018-11-29T10:41:18.561Z,2.83
2018-11-29T10:46:23.993Z,2.67
2018-11-29T10:51:29.608Z,2.50
2018-11-29T10:56:35.772Z,2.20
2018-11-29T11:01:45.505Z,1.33
2018-11-29T11:06:51.295Z,2.10
2018-11-29T11:11:56.907Z,1.50
2018-11-29T11:17:02.449Z,1.50
2018-11-29T11:22:08.409Z,1.70
2018-11-29T11:27:13.762Z,1.90
2018-11-29T11:32:19.895Z,2.07
2018-11-29T11:37:25.619Z,2.20
2018-11-29T11:42:31.049Z,2.50
2018-11-29T11:47:37.220Z,2.13
2018-11-29T11:52:42.946Z,1.90
2018-11-29T11:57:49.189Z,2.27
2018-11-29T12:03:01.010Z,2.17
2018-11-29T12:08:06.829Z,2.23
2018-11-29T12:13:12.805Z,2.80
2018-11-29T12:18:18.906Z,1.80
2018-11-29T12:23:25.056Z,1.83
2018-11-29T12:28:31.229Z,3.20
2018-11-29T12:33:37.166Z,3.80
2018-11-29T12:38:42.748Z,1.90
2018-11-29T12:43:48.356Z,3.57
2018-11-29T12:48:54.544Z,3.50
2018-11-29T12:54:00.206Z,2.83
2018-11-29T12:59:06.171Z,1.87
2018-11-29T13:04:11.706Z,1.87
2018-11-29T13:09:17.401Z,1.70
2018-11-29T13:14:23.074Z,2.30
2018-11-29T13:19:28.785Z,2.13
2018-11-29T13:24:34.547Z,2.07
2018-11-29T13:29:41.873Z,1.50
2018-11-29T13:34:47.353Z,2.10
2018-11-29T13:39:53.802Z,4.10
2018-11-29T13:44:59.628Z,2.13
2018-11-29T13:50:08.895Z,1.90
2018-11-29T13:55:15.811Z,1.53
2018-11-29T14:00:22.453Z,2.63
2018-11-29T14:05:28.143Z,2.00
2018-11-29T14:10:33.602Z,1.50
2018-11-29T14:15:40.112Z,1.40
2018-11-29T14:20:45.539Z,1.80
2018-11-29T14:25:51.307Z,2.30
2018-11-29T14:30:56.803Z,1.87
2018-11-29T14:36:02.302Z,1.60
2018-11-29T14:41:07.821Z,1.30
2018-11-29T14:46:14.547Z,1.60
2018-11-29T14:51:21.462Z,1.23
2018-11-29T14:56:27.369Z,1.33
2018-11-29T15:01:33.031Z,1.47
2018-11-29T15:06:38.603Z,0.80
2018-11-29T15:11:45.088Z,0.80
2018-11-29T15:16:50.491Z,1.90
2018-11-29T15:21:56.110Z,1.50
2018-11-29T15:27:02.258Z,1.30
2018-11-29T15:32:08.802Z,1.47
2018-11-29T15:37:14.427Z,9.77
2018-11-29T15:42:21.006Z,2.43
2018-11-29T15:47:27.688Z,1.83
2018-11-29T15:52:33.707Z,1.80
2018-11-29T15:57:40.967Z,3.23
2018-11-29T16:02:47.539Z,2.10
2018-11-29T16:07:53.295Z,35.80
2018-11-29T16:12:59.232Z,16.30
2018-11-29T16:18:04.988Z,6.33
2018-11-29T16:23:12.781Z,4.50
2018-11-29T16:28:18.850Z,3.80
2018-11-29T16:33:27.145Z,2.17
2018-11-29T16:38:33.515Z,3.93
2018-11-29T16:43:39.013Z,9.00
2018-11-29T16:48:44.524Z,2.70
2018-11-29T16:53:50.439Z,2.17
2018-11-29T16:58:56.349Z,2.80
2018-11-29T17:04:01.882Z,2.00
2018-11-29T17:09:10.065Z,2.10
2018-11-29T17:14:15.931Z,2.57
2018-11-29T17:19:21.439Z,3.00
2018-11-29T17:24:27.940Z,2.63
2018-11-29T17:29:33.495Z,2.50
2018-11-29T17:34:39.116Z,2.40
2018-11-29T17:39:44.756Z,2.40
2018-11-29T17:44:50.789Z,2.90
2018-11-29T17:49:56.338Z,2.77
2018-11-29T17:55:02.142Z,3.53
2018-11-29T18:00:12.364Z,3.07
2018-11-29T18:05:18.255Z,2.70
2018-11-29T18:10:26.237Z,3.00
2018-11-29T18:15:33.280Z,2.30
2018-11-29T18:20:38.876Z,2.90
2018-11-29T18:25:45.761Z,3.50
2018-11-29T18:30:51.345Z,3.07
2018-11-29T18:35:59.148Z,2.57
2018-11-29T18:41:36.777Z,3.30
2018-11-29T18:46:42.024Z,3.33
2018-11-29T18:51:48.273Z,2.90
2018-11-29T18:56:54.171Z,3.80
2018-11-29T19:01:59.906Z,7.30
2018-11-29T19:07:05.887Z,2.80
2018-11-29T19:12:12.683Z,3.50
2018-11-29T19:17:18.757Z,2.70
2018-11-29T19:22:24.629Z,4.57
2018-11-29T19:27:31.176Z,2.80
2018-11-29T19:32:37.287Z,2.40
2018-11-29T19:37:43.184Z,3.73
2018-11-29T19:42:49.786Z,4.10
2018-11-29T19:47:55.539Z,4.77
2018-11-29T19:53:01.911Z,4.37
2018-11-29T19:58:07.366Z,4.63
2018-11-29T20:03:12.974Z,5.20
2018-11-29T20:08:20.854Z,7.57
2018-11-29T20:13:26.378Z,5.53
2018-11-29T20:18:32.437Z,4.83
2018-11-29T20:23:39.125Z,5.50
2018-11-29T20:28:45.108Z,5.53
2018-11-29T20:33:51.030Z,5.67
2018-11-29T20:38:57.019Z,5.43
2018-11-29T20:44:03.795Z,5.80
2018-11-29T20:49:09.316Z,5.47
2018-11-29T20:54:14.933Z,5.07
2018-11-29T20:59:20.453Z,5.43
2018-11-29T21:04:25.862Z,5.40
2018-11-29T21:09:31.584Z,5.00
2018-11-29T21:14:37.425Z,6.40
2018-11-29T21:19:43.092Z,5.93
2018-11-29T21:24:48.251Z,5.47
2018-11-29T21:29:53.945Z,5.83
2018-11-29T21:34:59.424Z,6.10
2018-11-29T21:40:15.617Z,8.00
2018-11-29T21:45:21.926Z,4.93
2018-11-29T21:50:27.617Z,5.43
2018-11-29T21:55:33.299Z,6.30
2018-11-29T22:00:38.813Z,5.93
2018-11-29T22:05:44.517Z,4.63
2018-11-29T22:10:50.906Z,5.47
2018-11-29T22:15:56.391Z,6.60
2018-11-29T22:21:06.939Z,5.93
2018-11-29T22:26:13.848Z,5.93
2018-11-29T22:31:19.441Z,5.93
2018-11-29T22:36:25.414Z,5.97
2018-11-29T22:41:31.007Z,6.77
2018-11-29T22:46:37.669Z,8.20
2018-11-29T22:51:43.145Z,9.70
2018-11-29T22:56:48.820Z,12.67
2018-11-29T23:01:54.371Z,9.10
2018-11-29T23:06:59.791Z,8.67
2018-11-29T23:12:04.905Z,9.03
2018-11-29T23:17:10.621Z,9.30
2018-11-29T23:22:16.286Z,8.60
2018-11-29T23:27:22.142Z,9.40
2018-11-29T23:32:27.496Z,8.00
2018-11-29T23:37:33.894Z,8.60
2018-11-29T23:42:39.957Z,8.67
2018-11-29T23:47:45.630Z,7.10
2018-11-29T23:52:51.182Z,8.20
2018-11-29T23:57:56.483Z,8.80
